Terminal Aerodrome Forecast
Issued by NWS Greer, SC

Home | Current Version | Previous Version | Text Only | Print | Product List | Glossary On
Versions: 1 2 3 4 5 6 7 8 9 10 11 12 13 14 15 16 17 18 19 20 21 22 23 24
000
FTUS42 KGSP 242300
TAFGSP
TAF
KGSP 242333Z 2500/2524 28005KT P6SM SCT050 BKN150
     FM250300 35004KT P6SM FEW060 BKN200
     FM251000 36003KT 4SM BR FEW010 SCT060
     FM251400 13005KT P6SM SCT060=

USA.gov is the U.S. government's official web portal to all federal, state and local government web resources and services.